This is the latest recevied weather packets stored in our database for station/object N2RDT. If no packets are shown the sender has not sent any weather packets the latest 10 day(s).
| Time | Temp. | Humidity | Pressure | Rain* | Wind** | Luminosity | Snow |
|---|---|---|---|---|---|---|---|
| 1777606586 | 12.78° C | 60% | 1013.1 hPa | 0 mm | - | 0 W/m² | - |
| 1777606281 | 12.78° C | 61% | 1013 hPa | 0 mm | - | 0 W/m² | - |
| 1777605976 | 12.78° C | 61% | 1013 hPa | 0 mm | - | 0 W/m² | - |
| 1777605673 | 12.78° C | 62% | 1013.1 hPa | 0 mm | - | 0 W/m² | - |
| 1777605372 | 12.78° C | 63% | 1012.9 hPa | 0 mm | - | 0 W/m² | - |
| 1777605069 | 12.78° C | 63% | 1012.9 hPa | 0 mm | - | 0 W/m² | - |
| 1777604764 | 12.78° C | 63% | 1012.8 hPa | 0 mm | - | 0 W/m² | - |
| 1777604462 | 13.33° C | 63% | 1012.9 hPa | 0 mm | - | 0 W/m² | - |
| 1777604161 | 13.33° C | 64% | 1012.8 hPa | 0 mm | - | 0 W/m² | - |
| 1777603858 | 13.33° C | 64% | 1012.9 hPa | 0 mm | - | 0 W/m² | - |
| 1777603554 | 13.89° C | 63% | 1012.8 hPa | 0 mm | - | 0 W/m² | - |
| 1777603250 | 13.89° C | 63% | 1012.7 hPa | 0 mm | - | 0 W/m² | - |
| 1777602946 | 13.89° C | 65% | 1012.7 hPa | 0 mm | - | 0 W/m² | - |
| 1777602641 | 13.33° C | 66% | 1012.8 hPa | 0 mm | - | 0 W/m² | - |
| 1777602336 | 13.33° C | 67% | 1012.7 hPa | 0 mm | - | 0 W/m² | - |
| 1777602033 | 13.89° C | 67% | 1012.7 hPa | 0 mm | - | 0 W/m² | - |
| 1777600513 | 14.44° C | 65% | 1012.3 hPa | 0 mm | - | 0 W/m² | - |
| 1777583217 | 21.67° C | 51% | 1009.4 hPa | 0 mm | - | 580 W/m² | - |
| 1777582611 | 21.67° C | 49% | 1009.5 hPa | 0 mm | - | 121 W/m² | - |
| 1777580797 | 23.33° C | 49% | 1009.5 hPa | 0 mm | - | 806 W/m² | - |
| 1777580189 | 22.78° C | 45% | 1009.5 hPa | 0 mm | - | 738 W/m² | - |
| 1777578976 | 22.22° C | 49% | 1009.6 hPa | 0 mm | - | 316 W/m² | - |
| 1777578671 | 21.67° C | 50% | 1009.8 hPa | 0 mm | - | 296 W/m² | - |
| 1777577761 | 22.22° C | 48% | 1009.8 hPa | 0 mm | - | 399 W/m² | - |
| 1777577155 | 22.22° C | 48% | 1009.8 hPa | 0 mm | - | 702 W/m² | - |
* Rain latest hour (hover to see other rain measurements)
** Current wind speed in m/s (hover to see current wind gust speed)